sensor_id;sensor_type;location;lat;lon;timestamp;P1;durP1;ratioP1;P2;durP2;ratioP2
56173;SDS011;42058;52.308;20.924;2022-12-24T00:02:24;46.10;;;21.65;;
56173;SDS011;42058;52.308;20.924;2022-12-24T00:04:50;44.27;;;20.88;;
56173;SDS011;42058;52.308;20.924;2022-12-24T00:07:16;49.38;;;21.37;;
56173;SDS011;42058;52.308;20.924;2022-12-24T00:09:43;46.77;;;20.60;;
56173;SDS011;42058;52.308;20.924;2022-12-24T00:12:09;50.38;;;21.07;;
56173;SDS011;42058;52.308;20.924;2022-12-24T00:14:35;44.93;;;19.20;;
56173;SDS011;42058;52.308;20.924;2022-12-24T00:17:01;51.77;;;20.92;;
56173;SDS011;42058;52.308;20.924;2022-12-24T00:19:27;46.95;;;20.35;;
56173;SDS011;42058;52.308;20.924;2022-12-24T00:21:53;51.30;;;21.27;;
56173;SDS011;42058;52.308;20.924;2022-12-24T00:24:19;43.63;;;19.67;;
56173;SDS011;42058;52.308;20.924;2022-12-24T00:26:46;47.08;;;20.32;;
56173;SDS011;42058;52.308;20.924;2022-12-24T00:29:12;46.90;;;19.95;;
56173;SDS011;42058;52.308;20.924;2022-12-24T00:31:38;53.95;;;20.50;;
56173;SDS011;42058;52.308;20.924;2022-12-24T00:34:04;50.45;;;21.30;;
56173;SDS011;42058;52.308;20.924;2022-12-24T00:36:30;54.15;;;19.87;;
56173;SDS011;42058;52.308;20.924;2022-12-24T00:38:56;53.92;;;21.07;;
56173;SDS011;42058;52.308;20.924;2022-12-24T00:41:22;54.38;;;21.12;;
56173;SDS011;42058;52.308;20.924;2022-12-24T00:44:01;57.50;;;20.70;;
56173;SDS011;42058;52.308;20.924;2022-12-24T00:46:32;59.35;;;22.87;;
56173;SDS011;42058;52.308;20.924;2022-12-24T00:48:59;66.28;;;22.73;;
56173;SDS011;42058;52.308;20.924;2022-12-24T00:51:26;55.08;;;21.33;;
56173;SDS011;42058;52.308;20.924;2022-12-24T00:53:52;52.67;;;20.65;;
56173;SDS011;42058;52.308;20.924;2022-12-24T00:56:19;48.45;;;19.20;;
56173;SDS011;42058;52.308;20.924;2022-12-24T00:58:45;56.53;;;20.48;;
56173;SDS011;42058;52.308;20.924;2022-12-24T01:01:12;56.10;;;21.52;;
56173;SDS011;42058;52.308;20.924;2022-12-24T01:03:39;55.23;;;21.45;;
56173;SDS011;42058;52.308;20.924;2022-12-24T01:08:37;55.80;;;21.07;;
56173;SDS011;42058;52.308;20.924;2022-12-24T01:11:04;51.83;;;19.23;;
56173;SDS011;42058;52.308;20.924;2022-12-24T01:13:31;57.60;;;21.40;;
56173;SDS011;42058;52.308;20.924;2022-12-24T01:15:58;57.80;;;21.93;;
56173;SDS011;42058;52.308;20.924;2022-12-24T01:18:25;68.25;;;23.18;;
56173;SDS011;42058;52.308;20.924;2022-12-24T01:20:58;63.68;;;23.38;;
56173;SDS011;42058;52.308;20.924;2022-12-24T01:23:27;53.35;;;20.62;;
56173;SDS011;42058;52.308;20.924;2022-12-24T01:25:58;61.37;;;22.17;;
56173;SDS011;42058;52.308;20.924;2022-12-24T01:28:27;59.45;;;22.15;;
56173;SDS011;42058;52.308;20.924;2022-12-24T01:30:54;50.83;;;21.97;;
56173;SDS011;42058;52.308;20.924;2022-12-24T01:33:20;58.95;;;22.67;;
56173;SDS011;42058;52.308;20.924;2022-12-24T01:35:46;50.17;;;19.92;;
56173;SDS011;42058;52.308;20.924;2022-12-24T01:38:13;55.08;;;20.72;;
56173;SDS011;42058;52.308;20.924;2022-12-24T01:40:40;55.95;;;20.55;;
56173;SDS011;42058;52.308;20.924;2022-12-24T01:43:27;56.75;;;21.23;;
56173;SDS011;42058;52.308;20.924;2022-12-24T01:53:42;54.60;;;19.82;;
56173;SDS011;42058;52.308;20.924;2022-12-24T01:56:12;60.25;;;22.13;;
56173;SDS011;42058;52.308;20.924;2022-12-24T01:58:39;53.08;;;20.68;;
56173;SDS011;42058;52.308;20.924;2022-12-24T02:01:10;56.40;;;20.65;;
56173;SDS011;42058;52.308;20.924;2022-12-24T02:03:37;54.63;;;20.77;;
56173;SDS011;42058;52.308;20.924;2022-12-24T02:06:03;49.80;;;19.50;;
56173;SDS011;42058;52.308;20.924;2022-12-24T02:08:30;45.50;;;18.23;;
56173;SDS011;42058;52.308;20.924;2022-12-24T02:11:13;44.65;;;19.87;;
56173;SDS011;42058;52.308;20.924;2022-12-24T02:13:44;47.55;;;19.60;;
56173;SDS011;42058;52.308;20.924;2022-12-24T02:19:20;45.03;;;18.37;;
56173;SDS011;42058;52.308;20.924;2022-12-24T02:25:15;39.58;;;16.40;;
56173;SDS011;42058;52.308;20.924;2022-12-24T02:31:19;42.95;;;17.57;;
56173;SDS011;42058;52.308;20.924;2022-12-24T02:33:57;47.10;;;18.73;;
56173;SDS011;42058;52.308;20.924;2022-12-24T02:36:50;49.10;;;19.62;;
56173;SDS011;42058;52.308;20.924;2022-12-24T02:39:26;48.75;;;19.57;;
56173;SDS011;42058;52.308;20.924;2022-12-24T02:42:10;46.28;;;19.48;;
56173;SDS011;42058;52.308;20.924;2022-12-24T02:44:45;44.93;;;19.55;;
56173;SDS011;42058;52.308;20.924;2022-12-24T02:47:30;47.17;;;18.15;;
56173;SDS011;42058;52.308;20.924;2022-12-24T02:49:59;49.33;;;19.48;;
56173;SDS011;42058;52.308;20.924;2022-12-24T02:52:40;46.25;;;18.77;;
56173;SDS011;42058;52.308;20.924;2022-12-24T02:55:13;48.00;;;17.90;;
56173;SDS011;42058;52.308;20.924;2022-12-24T03:01:08;44.93;;;17.73;;
56173;SDS011;42058;52.308;20.924;2022-12-24T03:03:47;46.10;;;17.92;;
56173;SDS011;42058;52.308;20.924;2022-12-24T03:09:04;43.13;;;19.02;;
56173;SDS011;42058;52.308;20.924;2022-12-24T03:12:12;45.08;;;18.87;;
56173;SDS011;42058;52.308;20.924;2022-12-24T03:14:42;44.40;;;18.12;;
56173;SDS011;42058;52.308;20.924;2022-12-24T03:17:10;46.35;;;18.65;;
56173;SDS011;42058;52.308;20.924;2022-12-24T03:19:38;47.23;;;18.70;;
56173;SDS011;42058;52.308;20.924;2022-12-24T03:22:06;43.00;;;17.35;;
56173;SDS011;42058;52.308;20.924;2022-12-24T03:24:34;43.75;;;19.35;;
56173;SDS011;42058;52.308;20.924;2022-12-24T03:27:01;46.33;;;18.70;;
56173;SDS011;42058;52.308;20.924;2022-12-24T03:29:30;41.85;;;18.48;;
56173;SDS011;42058;52.308;20.924;2022-12-24T03:32:01;40.70;;;18.07;;
56173;SDS011;42058;52.308;20.924;2022-12-24T03:34:29;37.00;;;17.17;;
56173;SDS011;42058;52.308;20.924;2022-12-24T03:36:56;41.58;;;18.40;;
56173;SDS011;42058;52.308;20.924;2022-12-24T03:39:22;41.00;;;18.23;;
56173;SDS011;42058;52.308;20.924;2022-12-24T03:41:48;35.40;;;17.73;;
56173;SDS011;42058;52.308;20.924;2022-12-24T03:44:14;37.58;;;17.05;;
56173;SDS011;42058;52.308;20.924;2022-12-24T03:46:41;40.95;;;17.67;;
56173;SDS011;42058;52.308;20.924;2022-12-24T03:49:07;38.35;;;17.55;;
56173;SDS011;42058;52.308;20.924;2022-12-24T03:51:33;37.58;;;17.35;;
56173;SDS011;42058;52.308;20.924;2022-12-24T03:53:59;32.55;;;15.32;;
56173;SDS011;42058;52.308;20.924;2022-12-24T03:56:26;36.55;;;16.37;;
56173;SDS011;42058;52.308;20.924;2022-12-24T03:58:52;36.95;;;16.67;;
56173;SDS011;42058;52.308;20.924;2022-12-24T04:01:19;36.65;;;17.60;;
56173;SDS011;42058;52.308;20.924;2022-12-24T04:03:45;36.45;;;17.05;;
56173;SDS011;42058;52.308;20.924;2022-12-24T04:06:12;36.75;;;16.10;;
56173;SDS011;42058;52.308;20.924;2022-12-24T04:08:42;41.53;;;18.10;;
56173;SDS011;42058;52.308;20.924;2022-12-24T04:11:09;36.42;;;16.27;;
56173;SDS011;42058;52.308;20.924;2022-12-24T04:13:38;37.78;;;17.25;;
56173;SDS011;42058;52.308;20.924;2022-12-24T04:16:05;37.40;;;17.55;;
56173;SDS011;42058;52.308;20.924;2022-12-24T04:18:34;35.13;;;15.08;;
56173;SDS011;42058;52.308;20.924;2022-12-24T04:21:02;34.50;;;16.32;;
56173;SDS011;42058;52.308;20.924;2022-12-24T04:23:29;36.80;;;16.07;;
56173;SDS011;42058;52.308;20.924;2022-12-24T04:26:00;36.65;;;17.17;;
56173;SDS011;42058;52.308;20.924;2022-12-24T04:28:28;35.73;;;15.60;;
56173;SDS011;42058;52.308;20.924;2022-12-24T04:30:57;35.95;;;15.40;;
56173;SDS011;42058;52.308;20.924;2022-12-24T04:33:25;35.95;;;16.75;;
56173;SDS011;42058;52.308;20.924;2022-12-24T04:35:52;40.67;;;17.80;;
56173;SDS011;42058;52.308;20.924;2022-12-24T04:38:18;37.53;;;15.95;;
56173;SDS011;42058;52.308;20.924;2022-12-24T04:40:44;35.88;;;15.83;;
56173;SDS011;42058;52.308;20.924;2022-12-24T04:43:10;37.10;;;15.60;;
56173;SDS011;42058;52.308;20.924;2022-12-24T04:45:36;34.43;;;15.13;;
56173;SDS011;42058;52.308;20.924;2022-12-24T04:48:03;33.20;;;14.55;;
56173;SDS011;42058;52.308;20.924;2022-12-24T04:50:29;34.92;;;16.27;;
56173;SDS011;42058;52.308;20.924;2022-12-24T04:52:55;32.35;;;14.70;;
56173;SDS011;42058;52.308;20.924;2022-12-24T04:55:21;32.90;;;15.05;;
56173;SDS011;42058;52.308;20.924;2022-12-24T04:57:47;36.58;;;16.25;;
56173;SDS011;42058;52.308;20.924;2022-12-24T05:00:13;36.23;;;15.70;;
56173;SDS011;42058;52.308;20.924;2022-12-24T05:02:40;37.63;;;15.30;;
56173;SDS011;42058;52.308;20.924;2022-12-24T05:05:06;37.70;;;15.28;;
56173;SDS011;42058;52.308;20.924;2022-12-24T05:07:33;31.23;;;14.15;;
56173;SDS011;42058;52.308;20.924;2022-12-24T05:09:59;32.65;;;14.90;;
56173;SDS011;42058;52.308;20.924;2022-12-24T05:12:25;35.05;;;16.05;;
56173;SDS011;42058;52.308;20.924;2022-12-24T05:14:51;30.55;;;13.65;;
56173;SDS011;42058;52.308;20.924;2022-12-24T05:17:17;34.88;;;14.55;;
56173;SDS011;42058;52.308;20.924;2022-12-24T05:19:43;32.50;;;14.47;;
56173;SDS011;42058;52.308;20.924;2022-12-24T05:22:10;37.75;;;15.95;;
56173;SDS011;42058;52.308;20.924;2022-12-24T05:24:54;34.45;;;14.35;;
56173;SDS011;42058;52.308;20.924;2022-12-24T05:27:39;33.78;;;13.85;;
56173;SDS011;42058;52.308;20.924;2022-12-24T05:30:05;33.38;;;14.10;;
56173;SDS011;42058;52.308;20.924;2022-12-24T05:32:33;35.80;;;14.75;;
56173;SDS011;42058;52.308;20.924;2022-12-24T05:34:59;33.05;;;13.20;;
56173;SDS011;42058;52.308;20.924;2022-12-24T05:37:25;39.15;;;15.10;;
56173;SDS011;42058;52.308;20.924;2022-12-24T05:39:51;32.70;;;14.18;;
56173;SDS011;42058;52.308;20.924;2022-12-24T05:42:17;43.05;;;14.68;;
56173;SDS011;42058;52.308;20.924;2022-12-24T05:44:44;35.68;;;13.60;;
56173;SDS011;42058;52.308;20.924;2022-12-24T05:47:10;32.58;;;12.70;;
56173;SDS011;42058;52.308;20.924;2022-12-24T05:49:36;35.83;;;13.60;;
56173;SDS011;42058;52.308;20.924;2022-12-24T05:52:02;34.33;;;13.28;;
56173;SDS011;42058;52.308;20.924;2022-12-24T05:54:28;35.35;;;12.65;;
56173;SDS011;42058;52.308;20.924;2022-12-24T05:56:55;35.28;;;14.95;;
56173;SDS011;42058;52.308;20.924;2022-12-24T05:59:21;33.63;;;12.95;;
56173;SDS011;42058;52.308;20.924;2022-12-24T06:01:47;34.73;;;14.23;;
56173;SDS011;42058;52.308;20.924;2022-12-24T06:04:13;33.02;;;13.62;;
56173;SDS011;42058;52.308;20.924;2022-12-24T06:06:39;32.95;;;12.78;;
56173;SDS011;42058;52.308;20.924;2022-12-24T06:09:05;34.38;;;13.03;;
56173;SDS011;42058;52.308;20.924;2022-12-24T06:11:32;32.15;;;12.73;;
56173;SDS011;42058;52.308;20.924;2022-12-24T06:13:58;32.08;;;12.40;;
56173;SDS011;42058;52.308;20.924;2022-12-24T06:16:24;28.80;;;12.03;;
56173;SDS011;42058;52.308;20.924;2022-12-24T06:18:51;32.05;;;11.80;;
56173;SDS011;42058;52.308;20.924;2022-12-24T06:21:18;28.55;;;11.55;;
56173;SDS011;42058;52.308;20.924;2022-12-24T06:23:45;31.25;;;12.47;;
56173;SDS011;42058;52.308;20.924;2022-12-24T06:26:13;28.83;;;11.85;;
56173;SDS011;42058;52.308;20.924;2022-12-24T06:28:42;28.50;;;12.15;;
56173;SDS011;42058;52.308;20.924;2022-12-24T06:31:10;26.90;;;11.48;;
56173;SDS011;42058;52.308;20.924;2022-12-24T06:33:39;33.00;;;12.45;;
56173;SDS011;42058;52.308;20.924;2022-12-24T06:36:06;28.27;;;11.45;;
56173;SDS011;42058;52.308;20.924;2022-12-24T06:38:36;31.75;;;12.07;;
56173;SDS011;42058;52.308;20.924;2022-12-24T06:41:06;34.60;;;12.13;;
56173;SDS011;42058;52.308;20.924;2022-12-24T06:43:33;29.60;;;11.85;;
56173;SDS011;42058;52.308;20.924;2022-12-24T06:46:00;32.20;;;13.00;;
56173;SDS011;42058;52.308;20.924;2022-12-24T06:48:28;31.55;;;12.50;;
56173;SDS011;42058;52.308;20.924;2022-12-24T06:50:54;32.53;;;12.43;;
56173;SDS011;42058;52.308;20.924;2022-12-24T06:53:20;33.73;;;12.73;;
56173;SDS011;42058;52.308;20.924;2022-12-24T06:55:47;36.45;;;13.38;;
56173;SDS011;42058;52.308;20.924;2022-12-24T06:58:13;35.58;;;13.35;;
56173;SDS011;42058;52.308;20.924;2022-12-24T07:00:40;37.15;;;13.38;;
56173;SDS011;42058;52.308;20.924;2022-12-24T07:03:06;31.23;;;12.47;;
56173;SDS011;42058;52.308;20.924;2022-12-24T07:05:32;33.63;;;13.22;;
56173;SDS011;42058;52.308;20.924;2022-12-24T07:07:58;37.33;;;13.15;;
56173;SDS011;42058;52.308;20.924;2022-12-24T07:10:24;31.62;;;13.38;;
56173;SDS011;42058;52.308;20.924;2022-12-24T07:12:51;30.82;;;11.68;;
56173;SDS011;42058;52.308;20.924;2022-12-24T07:15:17;34.48;;;13.68;;
56173;SDS011;42058;52.308;20.924;2022-12-24T07:17:45;32.60;;;12.80;;
56173;SDS011;42058;52.308;20.924;2022-12-24T07:20:13;30.80;;;13.03;;
56173;SDS011;42058;52.308;20.924;2022-12-24T07:22:39;30.95;;;13.18;;
56173;SDS011;42058;52.308;20.924;2022-12-24T07:25:05;31.17;;;12.73;;
56173;SDS011;42058;52.308;20.924;2022-12-24T07:27:32;29.63;;;12.37;;
56173;SDS011;42058;52.308;20.924;2022-12-24T07:29:59;33.38;;;13.43;;
56173;SDS011;42058;52.308;20.924;2022-12-24T07:32:25;29.70;;;12.23;;
56173;SDS011;42058;52.308;20.924;2022-12-24T07:34:51;31.45;;;12.43;;
56173;SDS011;42058;52.308;20.924;2022-12-24T07:37:17;34.15;;;14.13;;
56173;SDS011;42058;52.308;20.924;2022-12-24T07:39:43;31.70;;;12.73;;
56173;SDS011;42058;52.308;20.924;2022-12-24T07:42:10;35.80;;;13.43;;
56173;SDS011;42058;52.308;20.924;2022-12-24T07:44:36;29.75;;;13.18;;
56173;SDS011;42058;52.308;20.924;2022-12-24T07:47:02;30.23;;;13.10;;
56173;SDS011;42058;52.308;20.924;2022-12-24T07:49:28;30.62;;;12.33;;
56173;SDS011;42058;52.308;20.924;2022-12-24T07:51:55;25.45;;;11.35;;
56173;SDS011;42058;52.308;20.924;2022-12-24T07:54:21;27.52;;;11.88;;
56173;SDS011;42058;52.308;20.924;2022-12-24T07:56:47;31.05;;;12.10;;
56173;SDS011;42058;52.308;20.924;2022-12-24T07:59:13;28.70;;;12.13;;
56173;SDS011;42058;52.308;20.924;2022-12-24T08:01:39;25.27;;;10.75;;
56173;SDS011;42058;52.308;20.924;2022-12-24T08:04:06;27.00;;;12.00;;
56173;SDS011;42058;52.308;20.924;2022-12-24T08:06:32;26.55;;;11.10;;
56173;SDS011;42058;52.308;20.924;2022-12-24T08:08:58;21.90;;;10.23;;
56173;SDS011;42058;52.308;20.924;2022-12-24T08:11:24;26.23;;;11.40;;
56173;SDS011;42058;52.308;20.924;2022-12-24T08:13:50;28.42;;;12.25;;
56173;SDS011;42058;52.308;20.924;2022-12-24T08:16:17;26.55;;;11.38;;
56173;SDS011;42058;52.308;20.924;2022-12-24T08:18:43;28.38;;;12.68;;
56173;SDS011;42058;52.308;20.924;2022-12-24T08:21:09;27.70;;;11.95;;
56173;SDS011;42058;52.308;20.924;2022-12-24T08:23:36;26.90;;;11.83;;
56173;SDS011;42058;52.308;20.924;2022-12-24T08:26:02;28.62;;;12.23;;
56173;SDS011;42058;52.308;20.924;2022-12-24T08:28:35;26.90;;;11.93;;
56173;SDS011;42058;52.308;20.924;2022-12-24T08:31:02;25.60;;;11.88;;
56173;SDS011;42058;52.308;20.924;2022-12-24T08:33:29;25.97;;;11.08;;
56173;SDS011;42058;52.308;20.924;2022-12-24T08:35:56;26.65;;;11.63;;
56173;SDS011;42058;52.308;20.924;2022-12-24T08:38:25;27.60;;;12.28;;
56173;SDS011;42058;52.308;20.924;2022-12-24T08:40:52;25.75;;;11.73;;
56173;SDS011;42058;52.308;20.924;2022-12-24T08:43:19;26.73;;;11.68;;
56173;SDS011;42058;52.308;20.924;2022-12-24T08:45:46;28.10;;;11.43;;
56173;SDS011;42058;52.308;20.924;2022-12-24T08:48:16;31.55;;;11.83;;
56173;SDS011;42058;52.308;20.924;2022-12-24T08:50:43;28.77;;;12.43;;
56173;SDS011;42058;52.308;20.924;2022-12-24T08:53:09;27.13;;;12.78;;
56173;SDS011;42058;52.308;20.924;2022-12-24T08:55:38;30.68;;;13.13;;
56173;SDS011;42058;52.308;20.924;2022-12-24T08:58:04;31.12;;;12.90;;
56173;SDS011;42058;52.308;20.924;2022-12-24T09:00:30;30.17;;;13.83;;
56173;SDS011;42058;52.308;20.924;2022-12-24T09:02:57;31.02;;;12.68;;
56173;SDS011;42058;52.308;20.924;2022-12-24T09:05:23;28.77;;;11.85;;
56173;SDS011;42058;52.308;20.924;2022-12-24T09:07:50;30.75;;;12.73;;
56173;SDS011;42058;52.308;20.924;2022-12-24T09:10:16;26.55;;;12.53;;
56173;SDS011;42058;52.308;20.924;2022-12-24T09:12:42;31.07;;;12.73;;
56173;SDS011;42058;52.308;20.924;2022-12-24T09:15:09;30.10;;;12.05;;
56173;SDS011;42058;52.308;20.924;2022-12-24T09:17:35;33.25;;;13.88;;
56173;SDS011;42058;52.308;20.924;2022-12-24T09:20:02;30.55;;;13.22;;
56173;SDS011;42058;52.308;20.924;2022-12-24T09:22:33;30.12;;;12.35;;
56173;SDS011;42058;52.308;20.924;2022-12-24T09:25:01;30.90;;;13.78;;
56173;SDS011;42058;52.308;20.924;2022-12-24T09:27:29;28.70;;;12.68;;
56173;SDS011;42058;52.308;20.924;2022-12-24T09:29:56;30.45;;;13.93;;
56173;SDS011;42058;52.308;20.924;2022-12-24T09:32:22;29.70;;;12.98;;
56173;SDS011;42058;52.308;20.924;2022-12-24T09:34:48;32.65;;;13.53;;
56173;SDS011;42058;52.308;20.924;2022-12-24T09:37:18;34.85;;;14.60;;
56173;SDS011;42058;52.308;20.924;2022-12-24T09:39:44;28.12;;;12.95;;
56173;SDS011;42058;52.308;20.924;2022-12-24T09:42:31;33.33;;;13.95;;
56173;SDS011;42058;52.308;20.924;2022-12-24T09:45:01;25.43;;;10.35;;
56173;SDS011;42058;52.308;20.924;2022-12-24T09:47:28;31.45;;;12.58;;
56173;SDS011;42058;52.308;20.924;2022-12-24T09:50:03;30.60;;;12.80;;
56173;SDS011;42058;52.308;20.924;2022-12-24T09:52:53;30.32;;;12.82;;
56173;SDS011;42058;52.308;20.924;2022-12-24T09:55:24;27.93;;;12.18;;
56173;SDS011;42058;52.308;20.924;2022-12-24T09:57:59;28.95;;;13.20;;
56173;SDS011;42058;52.308;20.924;2022-12-24T10:00:29;29.57;;;14.00;;
56173;SDS011;42058;52.308;20.924;2022-12-24T10:03:00;26.68;;;12.50;;
56173;SDS011;42058;52.308;20.924;2022-12-24T10:11:18;27.05;;;12.78;;
56173;SDS011;42058;52.308;20.924;2022-12-24T10:14:09;30.32;;;14.03;;
56173;SDS011;42058;52.308;20.924;2022-12-24T10:17:01;31.02;;;14.23;;
56173;SDS011;42058;52.308;20.924;2022-12-24T10:19:56;30.80;;;13.03;;
56173;SDS011;42058;52.308;20.924;2022-12-24T10:22:54;29.50;;;13.28;;
56173;SDS011;42058;52.308;20.924;2022-12-24T10:28:41;30.60;;;14.05;;
56173;SDS011;42058;52.308;20.924;2022-12-24T10:31:29;33.23;;;13.98;;
56173;SDS011;42058;52.308;20.924;2022-12-24T10:34:02;30.60;;;14.13;;
56173;SDS011;42058;52.308;20.924;2022-12-24T10:36:40;35.45;;;14.15;;
56173;SDS011;42058;52.308;20.924;2022-12-24T10:39:10;36.58;;;16.55;;
56173;SDS011;42058;52.308;20.924;2022-12-24T10:41:47;30.35;;;13.55;;
56173;SDS011;42058;52.308;20.924;2022-12-24T10:44:17;38.10;;;15.00;;
56173;SDS011;42058;52.308;20.924;2022-12-24T10:46:46;35.28;;;15.48;;
56173;SDS011;42058;52.308;20.924;2022-12-24T10:49:13;34.45;;;15.65;;
56173;SDS011;42058;52.308;20.924;2022-12-24T10:51:52;36.35;;;15.50;;
56173;SDS011;42058;52.308;20.924;2022-12-24T10:54:27;33.42;;;15.58;;
56173;SDS011;42058;52.308;20.924;2022-12-24T10:57:00;36.95;;;15.30;;
56173;SDS011;42058;52.308;20.924;2022-12-24T11:02:37;36.63;;;15.83;;
56173;SDS011;42058;52.308;20.924;2022-12-24T11:05:04;34.38;;;15.32;;
56173;SDS011;42058;52.308;20.924;2022-12-24T11:07:35;33.23;;;15.45;;
56173;SDS011;42058;52.308;20.924;2022-12-24T11:10:02;34.27;;;15.20;;
56173;SDS011;42058;52.308;20.924;2022-12-24T11:12:34;32.95;;;14.73;;
56173;SDS011;42058;52.308;20.924;2022-12-24T11:15:25;38.58;;;15.43;;
56173;SDS011;42058;52.308;20.924;2022-12-24T11:17:56;35.15;;;15.45;;
56173;SDS011;42058;52.308;20.924;2022-12-24T11:20:27;38.13;;;15.85;;
56173;SDS011;42058;52.308;20.924;2022-12-24T11:22:58;39.42;;;15.55;;
56173;SDS011;42058;52.308;20.924;2022-12-24T11:25:27;35.78;;;15.90;;
56173;SDS011;42058;52.308;20.924;2022-12-24T11:27:56;32.65;;;15.10;;
56173;SDS011;42058;52.308;20.924;2022-12-24T11:30:36;33.05;;;14.85;;
56173;SDS011;42058;52.308;20.924;2022-12-24T11:35:42;34.98;;;15.63;;
56173;SDS011;42058;52.308;20.924;2022-12-24T11:38:16;39.60;;;16.12;;
56173;SDS011;42058;52.308;20.924;2022-12-24T11:40:58;33.88;;;15.38;;
56173;SDS011;42058;52.308;20.924;2022-12-24T11:43:33;37.38;;;15.80;;
56173;SDS011;42058;52.308;20.924;2022-12-24T11:46:55;34.92;;;15.90;;
56173;SDS011;42058;52.308;20.924;2022-12-24T11:49:11;41.95;;;17.23;;
56173;SDS011;42058;52.308;20.924;2022-12-24T11:52:09;33.20;;;15.40;;
56173;SDS011;42058;52.308;20.924;2022-12-24T11:57:45;44.58;;;16.90;;
56173;SDS011;42058;52.308;20.924;2022-12-24T12:00:17;36.75;;;16.20;;
56173;SDS011;42058;52.308;20.924;2022-12-24T12:02:44;36.55;;;16.27;;
56173;SDS011;42058;52.308;20.924;2022-12-24T12:05:17;40.35;;;16.65;;
56173;SDS011;42058;52.308;20.924;2022-12-24T12:07:49;43.65;;;17.48;;
56173;SDS011;42058;52.308;20.924;2022-12-24T12:10:23;42.93;;;18.75;;
56173;SDS011;42058;52.308;20.924;2022-12-24T12:13:02;38.92;;;17.12;;
56173;SDS011;42058;52.308;20.924;2022-12-24T12:15:34;42.98;;;17.85;;
56173;SDS011;42058;52.308;20.924;2022-12-24T12:18:31;40.92;;;17.85;;
56173;SDS011;42058;52.308;20.924;2022-12-24T12:24:25;41.30;;;16.57;;
56173;SDS011;42058;52.308;20.924;2022-12-24T12:31:56;42.45;;;16.70;;
56173;SDS011;42058;52.308;20.924;2022-12-24T12:34:25;38.15;;;16.40;;
56173;SDS011;42058;52.308;20.924;2022-12-24T12:37:19;42.27;;;17.30;;
56173;SDS011;42058;52.308;20.924;2022-12-24T12:39:46;35.78;;;16.37;;
56173;SDS011;42058;52.308;20.924;2022-12-24T12:47:54;39.15;;;15.58;;
56173;SDS011;42058;52.308;20.924;2022-12-24T12:50:51;41.92;;;16.52;;
56173;SDS011;42058;52.308;20.924;2022-12-24T12:53:36;38.35;;;17.52;;
56173;SDS011;42058;52.308;20.924;2022-12-24T12:58:59;35.05;;;15.85;;
56173;SDS011;42058;52.308;20.924;2022-12-24T13:01:47;36.65;;;15.95;;
56173;SDS011;42058;52.308;20.924;2022-12-24T13:04:40;36.80;;;15.25;;
56173;SDS011;42058;52.308;20.924;2022-12-24T13:07:32;38.30;;;15.85;;
56173;SDS011;42058;52.308;20.924;2022-12-24T13:10:46;36.55;;;14.93;;
56173;SDS011;42058;52.308;20.924;2022-12-24T13:20:02;45.12;;;17.15;;
56173;SDS011;42058;52.308;20.924;2022-12-24T13:22:50;45.17;;;18.67;;
56173;SDS011;42058;52.308;20.924;2022-12-24T13:25:42;46.05;;;17.60;;
56173;SDS011;42058;52.308;20.924;2022-12-24T13:31:22;47.15;;;18.05;;
56173;SDS011;42058;52.308;20.924;2022-12-24T13:36:09;49.05;;;18.42;;
56173;SDS011;42058;52.308;20.924;2022-12-24T13:49:40;50.10;;;18.67;;
56173;SDS011;42058;52.308;20.924;2022-12-24T14:03:19;56.85;;;19.55;;
56173;SDS011;42058;52.308;20.924;2022-12-24T14:05:36;48.17;;;19.75;;
56173;SDS011;42058;52.308;20.924;2022-12-24T14:08:07;55.80;;;21.97;;
56173;SDS011;42058;52.308;20.924;2022-12-24T14:10:40;51.08;;;18.82;;
56173;SDS011;42058;52.308;20.924;2022-12-24T14:16:11;51.10;;;18.95;;
56173;SDS011;42058;52.308;20.924;2022-12-24T14:21:48;47.17;;;17.60;;
56173;SDS011;42058;52.308;20.924;2022-12-24T14:24:17;49.75;;;18.95;;
56173;SDS011;42058;52.308;20.924;2022-12-24T14:26:55;47.03;;;18.45;;
56173;SDS011;42058;52.308;20.924;2022-12-24T14:29:32;53.60;;;19.48;;
56173;SDS011;42058;52.308;20.924;2022-12-24T14:32:11;47.27;;;17.70;;
56173;SDS011;42058;52.308;20.924;2022-12-24T14:34:41;45.00;;;18.23;;
56173;SDS011;42058;52.308;20.924;2022-12-24T14:37:07;45.28;;;16.82;;
56173;SDS011;42058;52.308;20.924;2022-12-24T14:39:41;48.30;;;17.52;;
56173;SDS011;42058;52.308;20.924;2022-12-24T14:42:21;47.33;;;17.40;;
56173;SDS011;42058;52.308;20.924;2022-12-24T14:50:53;53.58;;;18.40;;
56173;SDS011;42058;52.308;20.924;2022-12-24T14:56:27;50.58;;;19.52;;
56173;SDS011;42058;52.308;20.924;2022-12-24T14:58:54;50.05;;;18.73;;
56173;SDS011;42058;52.308;20.924;2022-12-24T15:01:25;57.30;;;20.70;;
56173;SDS011;42058;52.308;20.924;2022-12-24T15:06:52;56.08;;;19.00;;
56173;SDS011;42058;52.308;20.924;2022-12-24T15:09:23;48.85;;;18.75;;
56173;SDS011;42058;52.308;20.924;2022-12-24T15:11:56;53.35;;;18.60;;
56173;SDS011;42058;52.308;20.924;2022-12-24T15:14:27;56.98;;;20.17;;
56173;SDS011;42058;52.308;20.924;2022-12-24T15:17:02;55.05;;;21.10;;
56173;SDS011;42058;52.308;20.924;2022-12-24T15:19:35;56.92;;;19.02;;
56173;SDS011;42058;52.308;20.924;2022-12-24T15:22:06;46.95;;;18.35;;
56173;SDS011;42058;52.308;20.924;2022-12-24T15:24:47;49.03;;;18.48;;
56173;SDS011;42058;52.308;20.924;2022-12-24T15:27:18;44.93;;;18.00;;
56173;SDS011;42058;52.308;20.924;2022-12-24T15:29:49;47.78;;;19.05;;
56173;SDS011;42058;52.308;20.924;2022-12-24T15:32:23;47.93;;;17.85;;
56173;SDS011;42058;52.308;20.924;2022-12-24T15:34:50;45.88;;;18.87;;
56173;SDS011;42058;52.308;20.924;2022-12-24T15:37:20;52.60;;;19.52;;
56173;SDS011;42058;52.308;20.924;2022-12-24T15:39:52;47.85;;;19.15;;
56173;SDS011;42058;52.308;20.924;2022-12-24T15:42:40;48.38;;;18.02;;
56173;SDS011;42058;52.308;20.924;2022-12-24T15:45:14;51.65;;;18.75;;
56173;SDS011;42058;52.308;20.924;2022-12-24T15:47:57;50.70;;;18.77;;
56173;SDS011;42058;52.308;20.924;2022-12-24T15:50:30;46.48;;;19.27;;
56173;SDS011;42058;52.308;20.924;2022-12-24T15:53:06;44.88;;;18.62;;
56173;SDS011;42058;52.308;20.924;2022-12-24T15:58:37;60.45;;;25.60;;
56173;SDS011;42058;52.308;20.924;2022-12-24T16:06:23;47.20;;;19.10;;
56173;SDS011;42058;52.308;20.924;2022-12-24T16:08:50;47.73;;;18.27;;
56173;SDS011;42058;52.308;20.924;2022-12-24T16:11:17;44.98;;;17.90;;
56173;SDS011;42058;52.308;20.924;2022-12-24T16:19:17;53.85;;;20.60;;
56173;SDS011;42058;52.308;20.924;2022-12-24T16:21:50;51.37;;;19.65;;
56173;SDS011;42058;52.308;20.924;2022-12-24T16:26:54;51.63;;;21.35;;
56173;SDS011;42058;52.308;20.924;2022-12-24T16:29:21;43.90;;;19.65;;
56173;SDS011;42058;52.308;20.924;2022-12-24T16:31:49;51.18;;;20.02;;
56173;SDS011;42058;52.308;20.924;2022-12-24T16:34:19;52.10;;;20.43;;
56173;SDS011;42058;52.308;20.924;2022-12-24T16:36:54;43.70;;;20.27;;
56173;SDS011;42058;52.308;20.924;2022-12-24T16:39:27;52.83;;;23.40;;